Time;durP1;ratioP1;P1;durP2;ratioP2;P2;SDS_P1;SDS_P2;PMS_P1;PMS_P2;Temp;Humidity;BMP_temperature;BMP_pressure;BME280_temperature;BME280_humidity;BME280_pressure;Samples;Min_cycle;Max_cycle;Signal;HPM_P1;HPM_P2
2022/02/09 00:01:59;;;;;;;6.37;4.30;;;;;;;;;;2615148;39;20831;-78
2022/02/09 00:07:24;;;;;;;4.03;3.57;;;;;;;;;;2613664;47;20518;-77
2022/02/09 00:09:51;;;;;;;4.67;4.13;;;;;;;;;;2613901;54;20395;-77
2022/02/09 00:12:23;;;;;;;7.80;4.00;;;;;;;;;;2614216;54;20412;-78
2022/02/09 00:33:25;;;;;;;6.17;4.40;;;;;;;;;;2613927;47;20962;-78
2022/02/09 00:38:47;;;;;;;6.20;4.80;;;;;;;;;;2614032;39;20815;-78
2022/02/09 01:57:01;;;;;;;6.90;2.50;;;;;;;;;;2615538;54;20423;-77
2022/02/09 01:59:27;;;;;;;2.43;2.20;;;;;;;;;;2615435;54;21200;-78
2022/02/09 02:01:54;;;;;;;2.30;2.20;;;;;;;;;;2615652;54;20513;-78
2022/02/09 02:04:24;;;;;;;3.97;2.50;;;;;;;;;;2614932;54;20431;-77
2022/02/09 02:06:52;;;;;;;2.47;2.03;;;;;;;;;;2615598;47;20974;-78
2022/02/09 02:09:19;;;;;;;2.53;2.30;;;;;;;;;;2615734;39;21070;-78
2022/02/09 02:11:50;;;;;;;4.40;2.47;;;;;;;;;;2615194;54;20422;-78
2022/02/09 02:14:35;;;;;;;2.23;2.03;;;;;;;;;;2614411;54;20438;-78
2022/02/09 02:22:27;;;;;;;1.90;1.80;;;;;;;;;;2616354;54;20419;-78
2022/02/09 02:30:14;;;;;;;4.60;3.67;;;;;;;;;;2615206;54;20508;-77
2022/02/09 03:13:19;;;;;;;8.93;7.07;;;;;;;;;;2614006;54;20444;-77
2022/02/09 03:15:54;;;;;;;7.23;6.50;;;;;;;;;;2614166;54;20421;-77
2022/02/09 03:21:15;;;;;;;6.50;5.50;;;;;;;;;;2614380;39;20824;-77
2022/02/09 03:45:47;;;;;;;6.60;5.90;;;;;;;;;;2615402;39;20934;-77
2022/02/09 03:50:43;;;;;;;7.77;6.90;;;;;;;;;;2616268;39;20936;-78
2022/02/09 03:58:08;;;;;;;6.97;6.27;;;;;;;;;;2615494;54;20435;-77
2022/02/09 04:00:41;;;;;;;8.80;7.90;;;;;;;;;;2614694;54;20423;-78
2022/02/09 04:03:13;;;;;;;8.70;7.17;;;;;;;;;;2615895;54;20418;-77
2022/02/09 04:05:39;;;;;;;8.33;7.27;;;;;;;;;;2615047;47;20427;-77
2022/02/09 04:08:12;;;;;;;9.17;7.57;;;;;;;;;;2614810;54;20431;-78
2022/02/09 04:10:47;;;;;;;7.07;6.20;;;;;;;;;;2615020;47;20439;-78
2022/02/09 04:18:50;;;;;;;8.57;7.20;;;;;;;;;;2614447;54;20992;-77
2022/02/09 04:38:07;;;;;;;9.70;7.87;;;;;;;;;;2614365;47;20423;-78
2022/02/09 04:43:35;;;;;;;11.13;7.70;;;;;;;;;;2614187;47;21016;-78
2022/02/09 05:17:58;;;;;;;9.57;7.20;;;;;;;;;;2615778;54;20427;-78
2022/02/09 05:28:35;;;;;;;12.57;8.30;;;;;;;;;;2615891;54;20489;-77
2022/02/09 05:31:03;;;;;;;10.10;8.23;;;;;;;;;;2615679;54;20410;-78
2022/02/09 05:33:30;;;;;;;8.50;7.60;;;;;;;;;;2615278;54;20419;-77
2022/02/09 05:35:56;;;;;;;7.63;6.83;;;;;;;;;;2616370;54;21023;-77
2022/02/09 05:38:22;;;;;;;8.47;6.90;;;;;;;;;;2614973;54;20438;-76
2022/02/09 05:40:48;;;;;;;7.97;6.30;;;;;;;;;;2616756;39;21087;-77
2022/02/09 05:43:16;;;;;;;7.80;5.87;;;;;;;;;;2615459;54;20998;-77
2022/02/09 05:51:46;;;;;;;4.77;3.90;;;;;;;;;;2614795;47;20550;-77
2022/02/09 05:56:46;;;;;;;6.20;5.60;;;;;;;;;;2615508;54;20410;-77
2022/02/09 06:01:47;;;;;;;10.43;7.73;;;;;;;;;;2614786;47;20994;-78
2022/02/09 06:04:14;;;;;;;6.53;5.40;;;;;;;;;;2615116;54;20415;-77
2022/02/09 06:06:45;;;;;;;8.03;5.67;;;;;;;;;;2615329;47;20423;-78
2022/02/09 06:09:11;;;;;;;7.27;4.70;;;;;;;;;;2615154;54;20423;-77
2022/02/09 06:14:23;;;;;;;6.37;5.30;;;;;;;;;;2615894;39;20837;-79
2022/02/09 06:22:04;;;;;;;4.93;4.20;;;;;;;;;;2615599;54;20410;-78
2022/02/09 06:24:33;;;;;;;6.00;5.00;;;;;;;;;;2615043;47;20526;-78
2022/02/09 06:26:59;;;;;;;5.80;4.07;;;;;;;;;;2614799;51;20465;-78
2022/02/09 06:29:25;;;;;;;9.67;4.90;;;;;;;;;;2614795;54;21003;-78
2022/02/09 06:31:53;;;;;;;5.93;4.27;;;;;;;;;;2615639;54;20453;-78
2022/02/09 06:34:21;;;;;;;6.27;5.67;;;;;;;;;;2614936;50;20980;-78
2022/02/09 06:36:57;;;;;;;7.03;3.90;;;;;;;;;;2614616;54;20403;-78
2022/02/09 06:39:25;;;;;;;4.70;4.07;;;;;;;;;;2615207;54;20419;-78
2022/02/09 06:41:51;;;;;;;3.77;3.40;;;;;;;;;;2615061;54;20420;-77
2022/02/09 06:44:19;;;;;;;6.30;4.40;;;;;;;;;;2615335;54;20414;-79
2022/02/09 06:46:46;;;;;;;6.90;4.70;;;;;;;;;;2615047;54;20399;-78
2022/02/09 06:49:13;;;;;;;5.80;5.20;;;;;;;;;;2614418;54;20944;-78
2022/02/09 06:51:42;;;;;;;8.17;6.00;;;;;;;;;;2615334;54;20399;-78
2022/02/09 06:57:02;;;;;;;8.07;5.70;;;;;;;;;;2615145;46;20902;-77
2022/02/09 06:59:29;;;;;;;6.27;5.20;;;;;;;;;;2614960;47;20547;-78
2022/02/09 07:02:04;;;;;;;8.77;7.27;;;;;;;;;;2614118;47;20986;-77
2022/02/09 07:04:32;;;;;;;9.20;7.30;;;;;;;;;;2615139;54;20406;-78
2022/02/09 07:06:58;;;;;;;9.67;7.33;;;;;;;;;;2614732;54;20963;-78
2022/02/09 07:09:27;;;;;;;9.87;7.33;;;;;;;;;;2614853;47;20458;-78
2022/02/09 07:11:53;;;;;;;11.53;8.20;;;;;;;;;;2615302;39;20962;-78
2022/02/09 07:14:28;;;;;;;9.27;7.00;;;;;;;;;;2614422;47;20425;-78
2022/02/09 07:16:56;;;;;;;12.20;8.40;;;;;;;;;;2615339;54;20426;-77
2022/02/09 07:19:22;;;;;;;10.30;7.40;;;;;;;;;;2614097;47;20546;-78
2022/02/09 07:21:49;;;;;;;9.23;7.83;;;;;;;;;;2615794;54;20564;-78
2022/02/09 07:24:19;;;;;;;12.67;8.17;;;;;;;;;;2615024;39;20941;-79
2022/02/09 07:29:12;;;;;;;8.80;7.03;;;;;;;;;;2615197;47;20423;-77
2022/02/09 07:31:38;;;;;;;8.17;6.90;;;;;;;;;;2614502;54;20986;-79
2022/02/09 07:34:04;;;;;;;8.77;7.40;;;;;;;;;;2614117;54;21262;-77
2022/02/09 07:36:35;;;;;;;10.10;7.33;;;;;;;;;;2612672;54;21067;-78
2022/02/09 07:39:05;;;;;;;12.73;8.00;;;;;;;;;;2613757;47;20420;-78
2022/02/09 07:41:33;;;;;;;9.40;7.53;;;;;;;;;;2613857;47;20998;-78
2022/02/09 07:49:05;;;;;;;9.40;7.20;;;;;;;;;;2614346;54;20435;-78
2022/02/09 07:54:02;;;;;;;7.47;6.70;;;;;;;;;;2613446;47;20418;-78
2022/02/09 07:56:29;;;;;;;11.57;7.90;;;;;;;;;;2613941;54;20408;-78
2022/02/09 07:58:56;;;;;;;11.20;7.17;;;;;;;;;;2614046;39;20822;-78
2022/02/09 08:01:23;;;;;;;10.97;7.57;;;;;;;;;;2613780;54;20426;-78
2022/02/09 08:03:50;;;;;;;10.80;8.70;;;;;;;;;;2613635;54;20439;-78
2022/02/09 08:06:18;;;;;;;8.60;7.13;;;;;;;;;;2613132;47;20427;-77
2022/02/09 08:08:45;;;;;;;9.33;7.77;;;;;;;;;;2613935;54;20415;-77
2022/02/09 08:34:52;;;;;;;11.70;8.43;;;;;;;;;;2614041;54;20534;-78
2022/02/09 08:37:18;;;;;;;13.30;8.50;;;;;;;;;;2613385;47;20466;-77
2022/02/09 08:39:47;;;;;;;8.80;7.30;;;;;;;;;;2614267;54;20436;-79
2022/02/09 08:42:14;;;;;;;11.53;7.87;;;;;;;;;;2613418;54;20915;-77
2022/02/09 08:44:40;;;;;;;11.67;8.87;;;;;;;;;;2613392;54;20438;-78
2022/02/09 08:47:07;;;;;;;9.70;7.70;;;;;;;;;;2614418;39;20838;-77
2022/02/09 08:49:33;;;;;;;11.80;7.57;;;;;;;;;;2614107;47;20562;-78
2022/02/09 08:52:00;;;;;;;8.37;7.47;;;;;;;;;;2614329;54;20427;-78
2022/02/09 08:54:27;;;;;;;11.63;7.43;;;;;;;;;;2613563;54;20474;-77
2022/02/09 08:56:54;;;;;;;8.33;7.17;;;;;;;;;;2613203;47;20434;-78
2022/02/09 08:59:27;;;;;;;11.17;9.23;;;;;;;;;;2613407;47;20988;-77
2022/02/09 09:02:03;;;;;;;7.30;6.60;;;;;;;;;;2613939;39;20833;-78
2022/02/09 09:04:34;;;;;;;12.07;8.73;;;;;;;;;;2613450;47;20427;-77
2022/02/09 09:07:06;;;;;;;8.27;6.70;;;;;;;;;;2613829;47;21038;-78
2022/02/09 09:10:42;;;;;;;8.83;7.43;;;;;;;;;;2613067;47;20503;-77
2022/02/09 10:01:54;;;;;;;4.87;3.60;;;;;;;;;;2614161;47;20423;-78
2022/02/09 10:32:50;;;;;;;4.33;3.23;;;;;;;;;;2613643;47;20427;-77
2022/02/09 10:35:33;;;;;;;3.37;2.70;;;;;;;;;;2614070;47;20431;-78
2022/02/09 10:38:18;;;;;;;4.67;3.57;;;;;;;;;;2613957;47;20419;-78
2022/02/09 10:40:49;;;;;;;6.30;3.33;;;;;;;;;;2613908;47;20555;-79
2022/02/09 10:43:25;;;;;;;3.20;2.43;;;;;;;;;;2614583;54;20424;-78
2022/02/09 10:45:53;;;;;;;4.93;3.13;;;;;;;;;;2613714;54;20577;-77
2022/02/09 10:48:33;;;;;;;2.60;2.40;;;;;;;;;;2614272;54;20420;-77
2022/02/09 10:51:22;;;;;;;10.03;3.37;;;;;;;;;;2614951;54;20423;-77
2022/02/09 10:54:05;;;;;;;4.43;3.80;;;;;;;;;;2614329;54;20416;-78
2022/02/09 10:56:33;;;;;;;3.57;2.97;;;;;;;;;;2614336;47;20418;-78
2022/02/09 10:59:04;;;;;;;7.10;4.07;;;;;;;;;;2613279;54;20403;-76
2022/02/09 11:01:30;;;;;;;6.10;4.00;;;;;;;;;;2613773;54;20418;-78
2022/02/09 11:03:58;;;;;;;5.73;3.80;;;;;;;;;;2613609;39;20812;-78
2022/02/09 11:06:27;;;;;;;3.50;3.20;;;;;;;;;;2614385;46;20423;-78
2022/02/09 11:08:54;;;;;;;3.40;3.20;;;;;;;;;;2613946;47;20433;-78
2022/02/09 11:11:21;;;;;;;4.63;3.60;;;;;;;;;;2615344;54;20558;-78
2022/02/09 11:13:48;;;;;;;13.17;4.20;;;;;;;;;;2613780;54;21280;-77
2022/02/09 11:16:16;;;;;;;3.33;3.03;;;;;;;;;;2614039;54;20402;-78
2022/02/09 11:18:45;;;;;;;4.10;3.70;;;;;;;;;;2613740;54;20416;-77
2022/02/09 11:21:14;;;;;;;4.10;3.20;;;;;;;;;;2614152;47;20435;-79
2022/02/09 11:23:53;;;;;;;4.10;3.03;;;;;;;;;;2614269;54;20407;-77
2022/02/09 11:26:35;;;;;;;3.97;3.33;;;;;;;;;;2614840;54;20521;-77
2022/02/09 11:29:21;;;;;;;4.10;2.90;;;;;;;;;;2613587;54;20419;-77
2022/02/09 11:32:10;;;;;;;4.23;3.53;;;;;;;;;;2613488;47;20442;-77
2022/02/09 11:34:53;;;;;;;4.40;4.00;;;;;;;;;;2614192;39;20840;-78
2022/02/09 11:37:32;;;;;;;4.10;3.00;;;;;;;;;;2613815;47;21513;-78
2022/02/09 11:40:01;;;;;;;4.20;2.87;;;;;;;;;;2613735;47;20971;-77
2022/02/09 11:42:44;;;;;;;5.60;4.00;;;;;;;;;;2614931;39;20799;-77
2022/02/09 11:45:57;;;;;;;3.40;3.10;;;;;;;;;;2613119;54;21023;-78
2022/02/09 11:54:55;;;;;;;5.27;4.77;;;;;;;;;;2612519;54;20440;-78
2022/02/09 12:09:23;;;;;;;5.17;4.67;;;;;;;;;;2613694;47;20423;-78
2022/02/09 12:11:50;;;;;;;6.83;5.47;;;;;;;;;;2614559;54;20415;-76
2022/02/09 12:14:35;;;;;;;4.90;3.90;;;;;;;;;;2613649;54;21051;-77
2022/02/09 12:19:51;;;;;;;6.40;5.20;;;;;;;;;;2613966;39;20926;-77
2022/02/09 12:22:22;;;;;;;9.63;5.20;;;;;;;;;;2613210;47;20426;-77
2022/02/09 12:24:54;;;;;;;7.60;4.63;;;;;;;;;;2613577;47;20435;-77
2022/02/09 12:27:21;;;;;;;7.73;5.23;;;;;;;;;;2613113;47;20506;-78
2022/02/09 12:29:48;;;;;;;8.03;4.27;;;;;;;;;;2613665;47;20451;-78
2022/02/09 12:32:15;;;;;;;9.87;6.10;;;;;;;;;;2613433;54;20412;-77
2022/02/09 12:34:45;;;;;;;8.10;5.20;;;;;;;;;;2613873;47;20422;-77
2022/02/09 12:37:14;;;;;;;10.63;5.17;;;;;;;;;;2614542;54;21034;-77
2022/02/09 12:39:47;;;;;;;5.87;4.80;;;;;;;;;;2614095;54;20423;-78
2022/02/09 12:42:16;;;;;;;7.27;4.90;;;;;;;;;;2613615;47;20430;-78
2022/02/09 12:44:42;;;;;;;6.43;5.33;;;;;;;;;;2612964;54;20510;-79
2022/02/09 12:47:08;;;;;;;8.17;5.57;;;;;;;;;;2613391;54;20435;-77
2022/02/09 12:49:34;;;;;;;5.10;4.47;;;;;;;;;;2613388;54;20423;-78
2022/02/09 12:52:01;;;;;;;6.07;4.90;;;;;;;;;;2613212;46;20427;-78
2022/02/09 12:54:27;;;;;;;5.60;4.27;;;;;;;;;;2614422;54;20410;-78
2022/02/09 12:56:55;;;;;;;9.97;5.80;;;;;;;;;;2614004;47;20461;-77
2022/02/09 12:59:22;;;;;;;10.20;4.70;;;;;;;;;;2613784;54;20408;-77
2022/02/09 13:01:52;;;;;;;4.90;4.40;;;;;;;;;;2613443;47;20414;-78
2022/02/09 13:04:30;;;;;;;8.33;5.50;;;;;;;;;;2613631;54;20426;-78
2022/02/09 13:06:59;;;;;;;6.57;5.20;;;;;;;;;;2613801;54;20421;-77
2022/02/09 13:09:26;;;;;;;8.37;5.80;;;;;;;;;;2613145;47;20437;-77
2022/02/09 13:11:53;;;;;;;5.00;4.50;;;;;;;;;;2613351;47;20947;-77
2022/02/09 13:14:29;;;;;;;7.30;5.23;;;;;;;;;;2614068;54;20431;-77
2022/02/09 13:17:24;;;;;;;6.80;5.83;;;;;;;;;;2613426;47;20458;-77
2022/02/09 13:20:27;;;;;;;7.40;5.10;;;;;;;;;;2614041;54;20458;-78
2022/02/09 14:13:17;;;;;;;5.87;5.10;;;;;;;;;;2612733;47;20427;-77
2022/02/09 14:58:24;;;;;;;6.47;3.40;;;;;;;;;;2613537;47;20437;-77
2022/02/09 15:08:48;;;;;;;3.43;3.13;;;;;;;;;;2613569;47;20435;-78
2022/02/09 15:11:26;;;;;;;4.13;3.40;;;;;;;;;;2613360;47;20423;-78
2022/02/09 15:19:09;;;;;;;2.97;2.60;;;;;;;;;;2612440;47;20423;-77
2022/02/09 15:24:23;;;;;;;6.93;2.93;;;;;;;;;;2612711;54;20418;-77
2022/02/09 15:26:52;;;;;;;5.60;3.47;;;;;;;;;;2613148;46;20619;-78
2022/02/09 15:29:18;;;;;;;4.83;3.63;;;;;;;;;;2612377;54;20417;-78
2022/02/09 15:31:53;;;;;;;7.10;3.70;;;;;;;;;;2613151;47;20433;-78
2022/02/09 15:34:27;;;;;;;3.80;3.50;;;;;;;;;;2612577;54;20408;-77
2022/02/09 15:39:59;;;;;;;4.10;3.30;;;;;;;;;;2612985;47;20423;-78
2022/02/09 15:43:44;;;;;;;3.00;2.70;;;;;;;;;;2612576;54;20534;-78
2022/02/09 15:56:24;;;;;;;7.27;3.50;;;;;;;;;;2613515;39;20463;-78
2022/02/09 16:10:06;;;;;;;9.97;3.27;;;;;;;;;;2615634;47;20538;-78
2022/02/09 16:23:46;;;;;;;7.13;4.57;;;;;;;;;;2612055;54;20411;-78
2022/02/09 16:45:04;;;;;;;5.03;2.63;;;;;;;;;;2612253;54;20446;-78
2022/02/09 16:50:06;;;;;;;3.70;3.40;;;;;;;;;;2612684;39;20855;-78
2022/02/09 16:52:45;;;;;;;4.67;2.90;;;;;;;;;;2613213;39;21290;-78
2022/02/09 16:55:50;;;;;;;3.43;2.50;;;;;;;;;;2612261;54;20403;-78
2022/02/09 17:21:02;;;;;;;3.20;2.70;;;;;;;;;;2613907;39;21300;-79
2022/02/09 17:23:30;;;;;;;4.60;2.70;;;;;;;;;;2612909;54;20448;-78
2022/02/09 17:25:57;;;;;;;3.77;2.90;;;;;;;;;;2613455;47;20987;-78
2022/02/09 17:28:23;;;;;;;6.97;4.47;;;;;;;;;;2612191;54;20473;-78
2022/02/09 17:33:35;;;;;;;11.40;5.07;;;;;;;;;;2612364;54;20536;-78
2022/02/09 17:36:12;;;;;;;7.77;4.90;;;;;;;;;;2612274;54;20456;-79
2022/02/09 17:57:22;;;;;;;5.03;2.83;;;;;;;;;;2614564;54;20462;-78
2022/02/09 18:00:07;;;;;;;3.33;3.03;;;;;;;;;;2614019;54;20430;-79
2022/02/09 18:02:35;;;;;;;3.73;3.03;;;;;;;;;;2614602;54;20416;-78
2022/02/09 18:05:10;;;;;;;4.10;3.17;;;;;;;;;;2613643;54;20423;-78
2022/02/09 18:07:38;;;;;;;5.97;3.17;;;;;;;;;;2613983;54;20466;-78
2022/02/09 18:31:42;;;;;;;15.90;4.07;;;;;;;;;;2612973;47;20423;-79
2022/02/09 18:42:55;;;;;;;6.40;3.70;;;;;;;;;;2613270;47;20526;-78
2022/02/09 19:30:55;;;;;;;5.47;4.97;;;;;;;;;;2614416;39;20832;-78
2022/02/09 19:49:49;;;;;;;18.37;11.47;;;;;;;;;;2612875;47;20430;-78
2022/02/09 19:52:45;;;;;;;9.43;6.30;;;;;;;;;;2613307;54;21228;-77
2022/02/09 19:55:31;;;;;;;7.07;5.00;;;;;;;;;;2614048;54;20445;-79
2022/02/09 19:57:59;;;;;;;9.03;4.67;;;;;;;;;;2614400;54;21287;-78
2022/02/09 20:00:27;;;;;;;5.93;5.33;;;;;;;;;;2613670;51;20427;-79
2022/02/09 20:02:54;;;;;;;11.53;6.77;;;;;;;;;;2613755;54;21290;-80
2022/02/09 20:05:22;;;;;;;5.70;5.20;;;;;;;;;;2613432;54;20416;-78
2022/02/09 20:07:49;;;;;;;7.30;6.00;;;;;;;;;;2613282;31;20886;-78
2022/02/09 20:10:15;;;;;;;6.10;5.50;;;;;;;;;;2613884;54;20801;-80
2022/02/09 20:12:42;;;;;;;5.90;5.07;;;;;;;;;;2613917;54;20415;-79
2022/02/09 20:15:13;;;;;;;26.70;19.90;;;;;;;;;;2613515;54;20424;-79
2022/02/09 20:17:46;;;;;;;27.47;19.93;;;;;;;;;;2614935;54;20952;-79
2022/02/09 20:20:17;;;;;;;18.63;13.77;;;;;;;;;;2615100;54;20944;-79
2022/02/09 20:22:44;;;;;;;9.40;7.50;;;;;;;;;;2613531;54;20399;-77
2022/02/09 20:25:11;;;;;;;9.30;6.77;;;;;;;;;;2613988;47;20427;-76
2022/02/09 20:27:38;;;;;;;11.50;6.60;;;;;;;;;;2613843;54;20451;-79
2022/02/09 20:30:09;;;;;;;8.00;5.50;;;;;;;;;;2614685;54;20541;-78
2022/02/09 20:32:42;;;;;;;6.93;5.60;;;;;;;;;;2614088;39;20858;-78
2022/02/09 20:35:11;;;;;;;9.10;6.53;;;;;;;;;;2613659;54;20542;-78
2022/02/09 20:37:43;;;;;;;7.53;6.70;;;;;;;;;;2613453;54;20451;-78
2022/02/09 20:40:12;;;;;;;8.00;7.00;;;;;;;;;;2614364;54;20445;-78
2022/02/09 20:42:45;;;;;;;7.03;5.47;;;;;;;;;;2613987;39;20489;-78
2022/02/09 20:45:20;;;;;;;8.60;7.33;;;;;;;;;;2615143;31;20907;-77
2022/02/09 20:47:55;;;;;;;9.07;7.13;;;;;;;;;;2612342;47;20429;-78
2022/02/09 20:50:22;;;;;;;10.60;6.73;;;;;;;;;;2613286;47;20429;-77
2022/02/09 20:52:48;;;;;;;12.83;10.37;;;;;;;;;;2613598;54;20433;-77
2022/02/09 20:55:14;;;;;;;15.90;10.83;;;;;;;;;;2614151;54;20418;-79
2022/02/09 20:57:41;;;;;;;10.63;8.20;;;;;;;;;;2613732;54;20439;-77
2022/02/09 21:00:12;;;;;;;19.53;11.33;;;;;;;;;;2613683;54;20493;-78
2022/02/09 21:02:52;;;;;;;7.43;6.70;;;;;;;;;;2613444;54;20410;-77
2022/02/09 21:06:03;;;;;;;9.63;6.83;;;;;;;;;;2614345;54;20415;-77
2022/02/09 21:54:54;;;;;;;12.03;7.07;;;;;;;;;;2614688;54;20422;-77
2022/02/09 22:29:43;;;;;;;9.73;7.47;;;;;;;;;;2615222;39;20803;-77
2022/02/09 22:50:54;;;;;;;16.10;8.20;;;;;;;;;;2615587;46;20407;-77
2022/02/09 22:56:07;;;;;;;19.83;8.40;;;;;;;;;;2614549;54;20433;-78
2022/02/09 22:58:35;;;;;;;12.40;8.23;;;;;;;;;;2614814;54;20465;-78
2022/02/09 23:01:42;;;;;;;11.70;8.00;;;;;;;;;;2614203;54;20895;-78
2022/02/09 23:53:27;;;;;;;17.23;8.40;;;;;;;;;;2618890;54;20559;-76
